createdAt,value
2019-01-27T00:00:25.140Z,984.41
2019-01-27T00:01:25.127Z,984.27
2019-01-27T00:02:25.122Z,984.20
2019-01-27T00:03:25.116Z,984.23
2019-01-27T00:04:25.119Z,984.20
2019-01-27T00:05:25.120Z,984.18
2019-01-27T00:06:25.129Z,984.20
2019-01-27T00:07:25.062Z,984.08
2019-01-27T00:08:25.067Z,984.03
2019-01-27T00:09:25.053Z,984.01
2019-01-27T00:10:25.040Z,984.01
2019-01-27T00:11:25.017Z,983.97
2019-01-27T00:12:25.008Z,983.99
2019-01-27T00:13:26.026Z,983.96
2019-01-27T00:14:24.994Z,983.89
2019-01-27T00:15:25.007Z,983.91
2019-01-27T00:16:24.968Z,983.81
2019-01-27T00:17:25.039Z,983.84
2019-01-27T00:18:24.989Z,983.85
2019-01-27T00:19:24.981Z,983.81
2019-01-27T00:20:25.011Z,983.82
2019-01-27T00:21:24.955Z,983.74
2019-01-27T00:22:25.016Z,983.77
2019-01-27T00:23:25.151Z,983.74
2019-01-27T00:24:25.108Z,983.72
2019-01-27T00:25:24.958Z,983.74
2019-01-27T00:26:24.885Z,983.73
2019-01-27T00:27:24.885Z,983.77
2019-01-27T00:28:24.827Z,983.74
2019-01-27T00:29:24.835Z,983.72
2019-01-27T00:30:24.828Z,983.78
2019-01-27T00:31:24.801Z,983.81
2019-01-27T00:32:24.786Z,983.77
2019-01-27T00:33:24.788Z,983.75
2019-01-27T00:34:25.774Z,983.69
2019-01-27T00:35:34.783Z,983.72
2019-01-27T00:36:24.742Z,983.67
2019-01-27T00:37:24.757Z,983.58
2019-01-27T00:38:24.733Z,983.61
2019-01-27T00:39:24.920Z,983.65
2019-01-27T00:40:24.774Z,983.57
2019-01-27T00:41:24.699Z,983.51
2019-01-27T00:42:24.691Z,983.48
2019-01-27T00:43:24.702Z,983.44
2019-01-27T00:44:24.649Z,983.47
2019-01-27T00:45:24.669Z,983.39
2019-01-27T00:46:24.647Z,983.37
2019-01-27T00:47:24.614Z,983.42
2019-01-27T00:48:24.608Z,983.40
2019-01-27T00:49:24.595Z,983.38
2019-01-27T00:50:24.608Z,983.32
2019-01-27T00:51:24.576Z,983.33
2019-01-27T00:52:24.558Z,983.27
2019-01-27T00:53:24.827Z,983.25
2019-01-27T00:54:24.551Z,983.29
2019-01-27T00:55:24.556Z,983.22
2019-01-27T00:56:24.524Z,983.22
2019-01-27T00:57:24.534Z,983.14
2019-01-27T00:58:24.497Z,983.14
2019-01-27T00:59:24.481Z,983.16
2019-01-27T01:00:24.539Z,983.04
2019-01-27T01:01:25.661Z,983.01
2019-01-27T01:02:24.463Z,982.91
2019-01-27T01:03:24.468Z,982.94
2019-01-27T01:04:24.746Z,982.88
2019-01-27T01:05:24.446Z,982.84
2019-01-27T01:06:24.411Z,982.72
2019-01-27T01:07:24.476Z,982.81
2019-01-27T01:08:24.379Z,982.76
2019-01-27T01:09:24.431Z,982.73
2019-01-27T01:10:24.402Z,982.68
2019-01-27T01:11:24.375Z,982.59
2019-01-27T01:12:24.354Z,982.55
2019-01-27T01:13:24.329Z,982.58
2019-01-27T01:14:24.323Z,982.61
2019-01-27T01:15:24.330Z,982.56
2019-01-27T01:16:24.309Z,982.47
2019-01-27T01:17:24.346Z,982.48
2019-01-27T01:18:24.329Z,982.50
2019-01-27T01:19:24.348Z,982.47
2019-01-27T01:20:24.342Z,982.49
2019-01-27T01:21:24.282Z,982.49
2019-01-27T01:22:24.269Z,982.38
2019-01-27T01:23:24.442Z,982.40
2019-01-27T01:24:24.245Z,982.35
2019-01-27T01:25:24.339Z,982.34
2019-01-27T01:26:24.226Z,982.38
2019-01-27T01:27:24.253Z,982.30
2019-01-27T01:28:24.176Z,982.30
2019-01-27T01:29:24.160Z,982.28
2019-01-27T01:30:24.176Z,982.27
2019-01-27T01:31:24.145Z,982.24
2019-01-27T01:32:24.132Z,982.28
2019-01-27T01:33:25.240Z,982.24
2019-01-27T01:34:24.115Z,982.20
2019-01-27T01:35:24.093Z,982.16
2019-01-27T01:36:24.081Z,982.18
2019-01-27T01:37:24.100Z,982.16
2019-01-27T01:38:24.125Z,982.14
2019-01-27T01:39:24.052Z,982.11
2019-01-27T01:40:24.039Z,982.09
2019-01-27T01:41:24.028Z,982.09
2019-01-27T01:42:24.030Z,982.06
2019-01-27T01:43:24.002Z,981.95
2019-01-27T01:44:24.008Z,981.95
2019-01-27T01:45:23.991Z,981.95
2019-01-27T01:46:23.973Z,981.98
2019-01-27T01:47:24.490Z,981.94
2019-01-27T01:48:23.943Z,981.92
2019-01-27T01:49:23.935Z,981.93
2019-01-27T01:50:23.959Z,981.86
2019-01-27T01:51:23.931Z,981.81
2019-01-27T01:52:23.905Z,981.86
2019-01-27T01:53:23.927Z,981.81
2019-01-27T01:54:23.874Z,981.87
2019-01-27T01:55:23.872Z,981.83
2019-01-27T01:56:23.857Z,981.82
2019-01-27T01:57:23.844Z,981.80
2019-01-27T01:58:23.862Z,981.78
2019-01-27T01:59:23.844Z,981.77
2019-01-27T02:00:23.858Z,981.71
2019-01-27T02:01:23.805Z,981.71
2019-01-27T02:02:23.791Z,981.73
2019-01-27T02:03:23.771Z,981.75
2019-01-27T02:04:23.768Z,981.73
2019-01-27T02:05:23.752Z,981.67
2019-01-27T02:06:23.771Z,981.68
2019-01-27T02:07:23.747Z,981.66
2019-01-27T02:08:23.747Z,981.59
2019-01-27T02:09:23.751Z,981.57
2019-01-27T02:10:23.698Z,981.57
2019-01-27T02:11:23.710Z,981.49
2019-01-27T02:12:23.687Z,981.47
2019-01-27T02:13:23.699Z,981.45
2019-01-27T02:14:23.665Z,981.40
2019-01-27T02:15:23.672Z,981.41
2019-01-27T02:16:23.693Z,981.40
2019-01-27T02:17:23.675Z,981.36
2019-01-27T02:18:23.720Z,981.37
2019-01-27T02:19:23.657Z,981.31
2019-01-27T02:20:23.638Z,981.28
2019-01-27T02:21:23.674Z,981.28
2019-01-27T02:22:23.624Z,981.21
2019-01-27T02:23:23.590Z,981.19
2019-01-27T02:24:23.578Z,981.16
2019-01-27T02:25:23.610Z,981.10
2019-01-27T02:26:23.639Z,981.10
2019-01-27T02:27:23.568Z,981.06
2019-01-27T02:28:23.502Z,981.11
2019-01-27T02:29:23.490Z,981.04
2019-01-27T02:30:23.475Z,981.04
2019-01-27T02:31:23.500Z,981.00
2019-01-27T02:32:23.470Z,981.00
2019-01-27T02:33:23.449Z,980.99
2019-01-27T02:34:23.435Z,980.94
2019-01-27T02:35:23.430Z,980.92
2019-01-27T02:36:23.475Z,980.94
2019-01-27T02:37:23.406Z,980.95
2019-01-27T02:38:23.400Z,980.94
2019-01-27T02:39:23.382Z,980.88
2019-01-27T02:40:23.375Z,980.85
2019-01-27T02:41:23.404Z,980.82
2019-01-27T02:42:23.353Z,980.81
2019-01-27T02:43:23.333Z,980.80
2019-01-27T02:44:23.391Z,980.75
2019-01-27T02:45:23.359Z,980.76
2019-01-27T02:46:23.330Z,980.75
2019-01-27T02:47:23.297Z,980.80
2019-01-27T02:48:23.302Z,980.71
2019-01-27T02:49:23.273Z,980.72
2019-01-27T02:50:23.275Z,980.70
2019-01-27T02:51:23.308Z,980.66
2019-01-27T02:52:23.620Z,980.68
2019-01-27T02:53:23.239Z,980.64
2019-01-27T02:54:23.233Z,980.62
2019-01-27T02:55:23.208Z,980.65
2019-01-27T02:56:23.226Z,980.59
2019-01-27T02:57:23.183Z,980.61
2019-01-27T02:58:23.167Z,980.54
2019-01-27T02:59:23.162Z,980.52
2019-01-27T03:00:23.148Z,980.55
2019-01-27T03:01:23.171Z,980.55
2019-01-27T03:02:23.156Z,980.54
2019-01-27T03:03:23.135Z,980.50
2019-01-27T03:04:23.120Z,980.48
2019-01-27T03:05:23.103Z,980.46
2019-01-27T03:06:23.148Z,980.46
2019-01-27T03:07:23.084Z,980.44
2019-01-27T03:08:23.064Z,980.44
2019-01-27T03:09:23.074Z,980.41
2019-01-27T03:10:23.043Z,980.32
2019-01-27T03:11:23.129Z,980.30
2019-01-27T03:12:23.041Z,980.21
2019-01-27T03:13:23.014Z,980.30
2019-01-27T03:14:22.996Z,980.21
2019-01-27T03:15:22.989Z,980.22
2019-01-27T03:16:23.082Z,980.20
2019-01-27T03:17:23.010Z,980.18
2019-01-27T03:18:22.981Z,980.12
2019-01-27T03:19:22.970Z,980.11
2019-01-27T03:20:22.964Z,980.13
2019-01-27T03:21:23.037Z,980.07
2019-01-27T03:22:22.981Z,980.08
2019-01-27T03:23:22.955Z,979.99
2019-01-27T03:24:22.917Z,980.00
2019-01-27T03:25:22.905Z,979.98
2019-01-27T03:26:22.945Z,979.92
2019-01-27T03:27:22.884Z,979.91
2019-01-27T03:28:22.835Z,979.89
2019-01-27T03:29:22.874Z,979.92
2019-01-27T03:30:22.891Z,979.88
2019-01-27T03:31:22.922Z,979.84
2019-01-27T03:32:22.802Z,979.81
2019-01-27T03:33:22.806Z,979.79
2019-01-27T03:34:22.774Z,979.84
2019-01-27T03:35:22.755Z,979.81
2019-01-27T03:36:22.786Z,979.78
2019-01-27T03:37:22.784Z,979.76
2019-01-27T03:38:22.727Z,979.73
2019-01-27T03:39:22.724Z,979.74
2019-01-27T03:40:22.706Z,979.79
2019-01-27T03:41:22.696Z,979.77
2019-01-27T03:42:22.714Z,979.75
2019-01-27T03:43:22.672Z,979.71
2019-01-27T03:44:22.670Z,979.72
2019-01-27T03:45:22.652Z,979.67
2019-01-27T03:46:22.647Z,979.64
2019-01-27T03:47:22.671Z,979.65
2019-01-27T03:48:22.619Z,979.64
2019-01-27T03:49:22.618Z,979.59
2019-01-27T03:50:22.641Z,979.49
2019-01-27T03:51:22.583Z,979.51
2019-01-27T03:52:22.610Z,979.48
2019-01-27T03:53:22.571Z,979.49
2019-01-27T03:54:22.551Z,979.43
2019-01-27T03:55:22.536Z,979.48
2019-01-27T03:56:22.527Z,979.47
2019-01-27T03:57:22.538Z,979.46
2019-01-27T03:58:22.529Z,979.46
2019-01-27T03:59:22.604Z,979.46
2019-01-27T04:00:22.530Z,979.43
2019-01-27T04:01:22.483Z,979.37
2019-01-27T04:02:22.542Z,979.33
2019-01-27T04:03:22.463Z,979.33
2019-01-27T04:04:22.465Z,979.30
2019-01-27T04:05:22.437Z,979.31
2019-01-27T04:06:22.422Z,979.27
2019-01-27T04:07:22.434Z,979.19
2019-01-27T04:08:22.401Z,979.19
2019-01-27T04:09:22.389Z,979.13
2019-01-27T04:10:22.381Z,979.10
2019-01-27T04:11:22.367Z,979.13
2019-01-27T04:12:22.506Z,979.13
2019-01-27T04:13:22.343Z,979.08
2019-01-27T04:14:22.332Z,979.07
2019-01-27T04:15:22.326Z,979.01
2019-01-27T04:16:22.334Z,979.03
2019-01-27T04:17:22.456Z,979.03
2019-01-27T04:18:22.318Z,978.98
2019-01-27T04:19:22.311Z,978.96
2019-01-27T04:20:22.311Z,978.96
2019-01-27T04:21:22.350Z,978.87
2019-01-27T04:22:22.339Z,978.91
2019-01-27T04:23:22.270Z,978.93
2019-01-27T04:24:22.295Z,978.90
2019-01-27T04:25:22.253Z,978.85
2019-01-27T04:26:22.227Z,978.85
2019-01-27T04:27:22.278Z,978.80
2019-01-27T04:28:22.236Z,978.80
2019-01-27T04:29:22.164Z,978.77
2019-01-27T04:30:22.199Z,978.73
2019-01-27T04:31:22.141Z,978.71
2019-01-27T04:32:22.181Z,978.69
2019-01-27T04:33:22.132Z,978.67
2019-01-27T04:34:22.125Z,978.66
2019-01-27T04:35:22.106Z,978.59
2019-01-27T04:36:22.189Z,978.55
2019-01-27T04:37:22.106Z,978.58
2019-01-27T04:38:22.106Z,978.56
2019-01-27T04:39:22.080Z,978.54
2019-01-27T04:40:22.060Z,978.53
2019-01-27T04:41:22.042Z,978.50
2019-01-27T04:42:22.064Z,978.48
2019-01-27T04:43:22.011Z,978.49
2019-01-27T04:44:22.018Z,978.45
2019-01-27T04:45:21.989Z,978.45
2019-01-27T04:46:21.969Z,978.45
2019-01-27T04:47:22.002Z,978.41
2019-01-27T04:48:21.961Z,978.36
2019-01-27T04:49:21.943Z,978.34
2019-01-27T04:50:21.927Z,978.30
2019-01-27T04:51:21.931Z,978.29
2019-01-27T04:52:21.951Z,978.33
2019-01-27T04:53:21.909Z,978.25
2019-01-27T04:54:24.901Z,978.20
2019-01-27T04:55:21.882Z,978.20
2019-01-27T04:56:21.868Z,978.17
2019-01-27T04:57:21.896Z,978.15
2019-01-27T04:58:21.852Z,978.15
2019-01-27T04:59:21.857Z,978.17
2019-01-27T05:00:21.964Z,978.17
2019-01-27T05:01:21.823Z,978.18
2019-01-27T05:02:21.832Z,978.14
2019-01-27T05:03:21.800Z,978.09
2019-01-27T05:04:21.782Z,978.17
2019-01-27T05:05:21.765Z,978.11
2019-01-27T05:06:21.770Z,978.11
2019-01-27T05:07:21.785Z,978.13
2019-01-27T05:08:21.759Z,978.13
2019-01-27T05:09:21.721Z,978.09
2019-01-27T05:10:24.716Z,978.07
2019-01-27T05:11:21.706Z,977.99
2019-01-27T05:12:21.810Z,977.98
2019-01-27T05:13:21.677Z,978.02
2019-01-27T05:14:21.669Z,978.03
2019-01-27T05:15:21.653Z,978.03
2019-01-27T05:16:21.648Z,978.03
2019-01-27T05:17:21.707Z,978.04
2019-01-27T05:18:21.669Z,978.04
2019-01-27T05:19:21.686Z,977.99
2019-01-27T05:20:21.643Z,977.97
2019-01-27T05:21:21.640Z,977.94
2019-01-27T05:22:21.655Z,977.89
2019-01-27T05:23:21.675Z,977.93
2019-01-27T05:24:21.602Z,977.90
2019-01-27T05:25:21.575Z,977.87
2019-01-27T05:26:21.571Z,977.93
2019-01-27T05:27:21.576Z,977.93
2019-01-27T05:28:21.537Z,977.89
2019-01-27T05:29:21.502Z,977.94
2019-01-27T05:30:21.529Z,977.88
2019-01-27T05:31:21.498Z,977.88
2019-01-27T05:32:21.474Z,977.90
2019-01-27T05:33:21.573Z,977.79
2019-01-27T05:34:21.456Z,977.82
2019-01-27T05:35:21.506Z,977.77
2019-01-27T05:36:21.429Z,977.77
2019-01-27T05:37:21.429Z,977.76
2019-01-27T05:38:21.429Z,977.74
2019-01-27T05:39:21.404Z,977.68
2019-01-27T05:40:21.385Z,977.69
2019-01-27T05:41:21.394Z,977.70
2019-01-27T05:42:21.429Z,977.74
2019-01-27T05:43:21.467Z,977.71
2019-01-27T05:44:21.334Z,977.69
2019-01-27T05:45:21.330Z,977.76
2019-01-27T05:46:21.322Z,977.76
2019-01-27T05:47:21.307Z,977.76
2019-01-27T05:48:21.323Z,977.71
2019-01-27T05:49:21.294Z,977.67
2019-01-27T05:50:21.307Z,977.71
2019-01-27T05:51:21.269Z,977.68
2019-01-27T05:52:21.267Z,977.64
2019-01-27T05:53:21.493Z,977.58
2019-01-27T05:54:21.227Z,977.59
2019-01-27T05:55:21.225Z,977.54
2019-01-27T05:56:22.028Z,977.50
2019-01-27T05:57:21.204Z,977.52
2019-01-27T05:58:21.224Z,977.51
2019-01-27T05:59:21.211Z,977.48
2019-01-27T06:00:21.173Z,977.41
2019-01-27T06:01:21.154Z,977.41
2019-01-27T06:02:21.147Z,977.45
2019-01-27T06:03:21.161Z,977.48
2019-01-27T06:04:21.112Z,977.49
2019-01-27T06:05:21.126Z,977.45
2019-01-27T06:06:21.184Z,977.44
2019-01-27T06:07:21.096Z,977.47
2019-01-27T06:08:21.096Z,977.48
2019-01-27T06:09:21.097Z,977.38
2019-01-27T06:10:21.064Z,977.39
2019-01-27T06:11:21.030Z,977.39
2019-01-27T06:12:21.028Z,977.34
2019-01-27T06:13:21.037Z,977.39
2019-01-27T06:14:21.017Z,977.36
2019-01-27T06:15:21.003Z,977.37
2019-01-27T06:16:20.983Z,977.31
2019-01-27T06:17:21.020Z,977.36
2019-01-27T06:18:21.046Z,977.28
2019-01-27T06:19:21.045Z,977.29
2019-01-27T06:20:20.968Z,977.27
2019-01-27T06:21:20.979Z,977.24
2019-01-27T06:22:20.949Z,977.23
2019-01-27T06:23:21.045Z,977.20
2019-01-27T06:24:20.932Z,977.20
2019-01-27T06:25:20.933Z,977.24
2019-01-27T06:26:20.909Z,977.23
2019-01-27T06:27:20.901Z,977.16
2019-01-27T06:28:20.961Z,977.19
2019-01-27T06:29:20.893Z,977.15
2019-01-27T06:30:20.826Z,977.16
2019-01-27T06:31:20.817Z,977.18
2019-01-27T06:32:20.814Z,977.15
2019-01-27T06:33:22.170Z,977.11
2019-01-27T06:34:20.785Z,977.18
2019-01-27T06:35:20.804Z,977.15
2019-01-27T06:36:20.800Z,977.13
2019-01-27T06:37:24.822Z,977.08
2019-01-27T06:38:20.744Z,977.08
2019-01-27T06:39:20.883Z,977.13
2019-01-27T06:40:20.727Z,977.06
2019-01-27T06:41:20.703Z,977.00
2019-01-27T06:42:20.737Z,977.03
2019-01-27T06:43:20.742Z,977.00
2019-01-27T06:44:20.702Z,977.04
2019-01-27T06:45:20.678Z,977.09
2019-01-27T06:46:20.650Z,977.09
2019-01-27T06:47:20.637Z,977.11
2019-01-27T06:48:20.649Z,977.11
2019-01-27T06:49:20.636Z,977.08
2019-01-27T06:50:20.611Z,977.05
2019-01-27T06:51:20.699Z,977.14
2019-01-27T06:52:20.616Z,977.11
2019-01-27T06:53:20.581Z,977.12
2019-01-27T06:54:20.585Z,977.12
2019-01-27T06:55:20.745Z,977.10
2019-01-27T06:56:20.555Z,977.08
2019-01-27T06:57:20.575Z,977.07
2019-01-27T06:58:20.514Z,977.02
2019-01-27T06:59:20.573Z,977.01
2019-01-27T07:00:20.495Z,976.97
2019-01-27T07:01:20.491Z,976.96
2019-01-27T07:02:20.478Z,976.92
2019-01-27T07:03:20.473Z,976.92
2019-01-27T07:04:20.480Z,976.88
2019-01-27T07:05:20.451Z,976.88
2019-01-27T07:06:20.485Z,976.85
2019-01-27T07:07:20.420Z,976.87
2019-01-27T07:08:20.439Z,976.86
2019-01-27T07:09:20.422Z,976.81
2019-01-27T07:10:20.421Z,976.82
2019-01-27T07:11:20.387Z,976.80
2019-01-27T07:12:20.376Z,976.74
2019-01-27T07:13:20.356Z,976.76
2019-01-27T07:14:20.869Z,976.77
2019-01-27T07:15:20.335Z,976.77
2019-01-27T07:16:20.363Z,976.74
2019-01-27T07:17:20.365Z,976.77
2019-01-27T07:18:20.344Z,976.83
2019-01-27T07:19:20.390Z,976.80
2019-01-27T07:20:20.308Z,976.74
2019-01-27T07:21:20.297Z,976.72
2019-01-27T07:22:20.296Z,976.67
2019-01-27T07:23:20.333Z,976.69
2019-01-27T07:24:20.391Z,976.71
2019-01-27T07:25:20.269Z,976.73
2019-01-27T07:26:20.248Z,976.74
2019-01-27T07:27:20.233Z,976.66
2019-01-27T07:28:20.199Z,976.64
2019-01-27T07:29:20.203Z,976.68
2019-01-27T07:30:20.167Z,976.71
2019-01-27T07:31:20.154Z,976.72
2019-01-27T07:32:20.252Z,976.69
2019-01-27T07:33:20.138Z,976.73
2019-01-27T07:34:30.160Z,976.72
2019-01-27T07:35:20.124Z,976.71
2019-01-27T07:36:20.103Z,976.71
2019-01-27T07:37:20.105Z,976.70
2019-01-27T07:38:20.076Z,976.72
2019-01-27T07:39:20.091Z,976.73
2019-01-27T07:40:20.067Z,976.72
2019-01-27T07:41:20.058Z,976.73
2019-01-27T07:42:20.040Z,976.74
2019-01-27T07:43:20.051Z,976.69
2019-01-27T07:44:20.043Z,976.66
2019-01-27T07:45:20.014Z,976.63
2019-01-27T07:46:20.040Z,976.69
2019-01-27T07:47:19.982Z,976.69
2019-01-27T07:48:19.975Z,976.66
2019-01-27T07:49:19.979Z,976.70
2019-01-27T07:50:19.945Z,976.68
2019-01-27T07:51:19.938Z,976.63
2019-01-27T07:52:19.927Z,976.63
2019-01-27T07:53:19.911Z,976.60
2019-01-27T07:54:19.948Z,976.59
2019-01-27T07:55:19.899Z,976.55
2019-01-27T07:56:19.935Z,976.58
2019-01-27T07:57:19.870Z,976.61
2019-01-27T07:58:19.917Z,976.61
2019-01-27T07:59:19.854Z,976.50
2019-01-27T08:00:19.880Z,976.57
2019-01-27T08:01:19.847Z,976.53
2019-01-27T08:02:19.819Z,976.55
2019-01-27T08:03:19.838Z,976.49
2019-01-27T08:04:19.789Z,976.44
2019-01-27T08:05:19.796Z,976.37
2019-01-27T08:06:19.769Z,976.39
2019-01-27T08:07:19.818Z,976.36
2019-01-27T08:08:19.745Z,976.36
2019-01-27T08:09:19.739Z,976.43
2019-01-27T08:10:19.764Z,976.42
2019-01-27T08:11:19.710Z,976.45
2019-01-27T08:12:19.715Z,976.49
2019-01-27T08:13:19.694Z,976.47
2019-01-27T08:14:19.761Z,976.43
2019-01-27T08:15:19.714Z,976.44
2019-01-27T08:16:19.669Z,976.42
2019-01-27T08:17:19.713Z,976.47
2019-01-27T08:18:19.671Z,976.51
2019-01-27T08:19:19.657Z,976.52
2019-01-27T08:20:19.712Z,976.48
2019-01-27T08:21:19.640Z,976.49
2019-01-27T08:22:19.628Z,976.47
2019-01-27T08:23:19.612Z,976.47
2019-01-27T08:24:19.712Z,976.44
2019-01-27T08:25:19.708Z,976.46
2019-01-27T08:26:19.575Z,976.49
2019-01-27T08:27:19.581Z,976.49
2019-01-27T08:28:19.543Z,976.54
2019-01-27T08:29:19.514Z,976.56
2019-01-27T08:30:19.575Z,976.55
2019-01-27T08:31:19.515Z,976.61
2019-01-27T08:32:19.485Z,976.57
2019-01-27T08:33:19.474Z,976.58
2019-01-27T08:34:19.461Z,976.59
2019-01-27T08:35:19.477Z,976.53
2019-01-27T08:36:19.457Z,976.54
2019-01-27T08:37:19.428Z,976.51
2019-01-27T08:38:19.411Z,976.55
2019-01-27T08:39:19.416Z,976.59
2019-01-27T08:40:19.436Z,976.62
2019-01-27T08:41:19.393Z,976.56
2019-01-27T08:42:19.393Z,976.57
2019-01-27T08:43:19.356Z,976.56
2019-01-27T08:44:19.357Z,976.54
2019-01-27T08:45:19.357Z,976.59
2019-01-27T08:46:19.330Z,976.58
2019-01-27T08:47:19.313Z,976.60
2019-01-27T08:48:19.304Z,976.56
2019-01-27T08:49:19.313Z,976.54
2019-01-27T08:50:19.318Z,976.52
2019-01-27T08:51:19.272Z,976.49
2019-01-27T08:52:19.268Z,976.50
2019-01-27T08:53:19.251Z,976.42
2019-01-27T08:54:19.247Z,976.35
2019-01-27T08:55:19.262Z,976.33
2019-01-27T08:56:19.226Z,976.34
2019-01-27T08:57:19.206Z,976.39
2019-01-27T08:58:19.223Z,976.34
2019-01-27T08:59:19.181Z,976.37
2019-01-27T09:00:19.203Z,976.36
2019-01-27T09:01:19.161Z,976.31
2019-01-27T09:02:19.192Z,976.35
2019-01-27T09:03:19.139Z,976.35
2019-01-27T09:04:19.135Z,976.36
2019-01-27T09:05:19.185Z,976.32
2019-01-27T09:06:19.131Z,976.34
2019-01-27T09:07:19.101Z,976.32
2019-01-27T09:08:19.147Z,976.31
2019-01-27T09:09:19.078Z,976.29
2019-01-27T09:10:19.100Z,976.26
2019-01-27T09:11:19.066Z,976.29
2019-01-27T09:12:19.047Z,976.26
2019-01-27T09:13:19.041Z,976.25
2019-01-27T09:14:19.037Z,976.27
2019-01-27T09:15:19.029Z,976.27
2019-01-27T09:16:19.041Z,976.27
2019-01-27T09:17:19.038Z,976.24
2019-01-27T09:18:19.042Z,976.20
2019-01-27T09:19:19.003Z,976.19
2019-01-27T09:20:19.004Z,976.19
2019-01-27T09:21:19.050Z,976.14
2019-01-27T09:22:18.976Z,976.12
2019-01-27T09:23:18.963Z,976.10
2019-01-27T09:24:19.036Z,976.08
2019-01-27T09:25:18.951Z,976.07
2019-01-27T09:26:18.985Z,976.06
2019-01-27T09:27:18.936Z,976.05
2019-01-27T09:28:18.871Z,976.04
2019-01-27T09:29:18.901Z,976.01
2019-01-27T09:30:18.863Z,976.01
2019-01-27T09:31:18.879Z,976.01
2019-01-27T09:32:18.836Z,976.00
2019-01-27T09:33:18.867Z,975.97
2019-01-27T09:34:18.827Z,976.02
2019-01-27T09:35:18.840Z,976.00
2019-01-27T09:36:18.828Z,975.98
2019-01-27T09:37:20.121Z,976.01
2019-01-27T09:38:18.976Z,976.02
2019-01-27T09:39:18.753Z,975.99
2019-01-27T09:40:18.754Z,976.00
2019-01-27T09:41:18.765Z,976.01
2019-01-27T09:42:18.721Z,975.98
2019-01-27T09:43:18.700Z,975.98
2019-01-27T09:44:18.696Z,976.00
2019-01-27T09:45:18.767Z,976.02
2019-01-27T09:46:20.476Z,975.96
2019-01-27T09:47:18.740Z,976.00
2019-01-27T09:48:18.654Z,975.99
2019-01-27T09:49:18.645Z,975.95
2019-01-27T09:50:18.669Z,975.95
2019-01-27T09:51:18.706Z,975.95
2019-01-27T09:52:18.621Z,975.97
2019-01-27T09:53:18.611Z,975.99
2019-01-27T09:54:18.600Z,976.04
2019-01-27T09:55:18.589Z,975.97
2019-01-27T09:56:18.620Z,976.00
2019-01-27T09:57:18.555Z,976.03
2019-01-27T09:58:18.552Z,976.01
2019-01-27T09:59:18.532Z,975.99
2019-01-27T10:00:18.524Z,975.93
2019-01-27T10:01:18.623Z,975.93
2019-01-27T10:02:18.501Z,975.89
2019-01-27T10:03:18.490Z,975.91
2019-01-27T10:04:18.542Z,975.88
2019-01-27T10:05:18.505Z,975.91
2019-01-27T10:06:18.489Z,975.97
2019-01-27T10:07:18.441Z,975.96
2019-01-27T10:08:18.432Z,975.93
2019-01-27T10:09:18.420Z,975.97
2019-01-27T10:10:18.429Z,975.96
2019-01-27T10:11:18.487Z,975.96
2019-01-27T10:12:18.401Z,976.00
2019-01-27T10:13:18.373Z,975.95
2019-01-27T10:14:18.371Z,975.97
2019-01-27T10:15:18.447Z,975.93
2019-01-27T10:16:18.370Z,975.93
2019-01-27T10:17:18.414Z,975.93
2019-01-27T10:18:18.357Z,975.91
2019-01-27T10:19:18.342Z,975.86
2019-01-27T10:20:18.331Z,975.84
2019-01-27T10:21:18.383Z,975.84
2019-01-27T10:22:18.331Z,975.81
2019-01-27T10:23:18.396Z,975.80
2019-01-27T10:24:19.300Z,975.76
2019-01-27T10:25:18.286Z,975.76
2019-01-27T10:26:18.333Z,975.73
2019-01-27T10:27:18.288Z,975.69
2019-01-27T10:28:18.220Z,975.71
2019-01-27T10:29:18.218Z,975.73
2019-01-27T10:30:18.207Z,975.71
2019-01-27T10:31:18.233Z,975.66
2019-01-27T10:32:18.202Z,975.66
2019-01-27T10:33:28.160Z,975.64
2019-01-27T10:34:18.154Z,975.63
2019-01-27T10:35:18.156Z,975.64
2019-01-27T10:36:18.160Z,975.57
2019-01-27T10:37:18.118Z,975.60
2019-01-27T10:38:18.109Z,975.58
2019-01-27T10:39:18.107Z,975.62
2019-01-27T10:40:18.084Z,975.59
2019-01-27T10:41:18.111Z,975.61
2019-01-27T10:42:18.063Z,975.60
2019-01-27T10:43:18.063Z,975.61
2019-01-27T10:44:18.037Z,975.52
2019-01-27T10:45:18.275Z,975.53
2019-01-27T10:46:18.039Z,975.51
2019-01-27T10:47:19.356Z,975.42
2019-01-27T10:48:18.062Z,975.44
2019-01-27T10:49:20.970Z,975.45
2019-01-27T10:51:09.144Z,975.44
2019-01-27T10:51:17.981Z,975.44
2019-01-27T10:52:17.956Z,975.39
2019-01-27T10:53:20.872Z,975.36
2019-01-27T10:54:17.962Z,975.38
2019-01-27T10:55:17.934Z,975.32
2019-01-27T10:56:17.919Z,975.34
2019-01-27T10:57:17.907Z,975.37
2019-01-27T10:58:17.878Z,975.39
2019-01-27T10:59:17.871Z,975.31
2019-01-27T11:00:17.868Z,975.32
2019-01-27T11:01:17.846Z,975.30
2019-01-27T11:02:17.848Z,975.33
2019-01-27T11:03:19.018Z,975.30
2019-01-27T11:04:17.816Z,975.26
2019-01-27T11:05:17.807Z,975.30
2019-01-27T11:06:17.794Z,975.25
2019-01-27T11:07:17.813Z,975.23
2019-01-27T11:08:17.781Z,975.26
2019-01-27T11:09:17.790Z,975.21
2019-01-27T11:10:17.757Z,975.18
2019-01-27T11:11:17.742Z,975.21
2019-01-27T11:12:17.750Z,975.17
2019-01-27T11:13:17.714Z,975.14
2019-01-27T11:14:18.710Z,975.11
2019-01-27T11:15:17.764Z,975.15
2019-01-27T11:16:17.690Z,975.09
2019-01-27T11:17:17.798Z,975.11
2019-01-27T11:18:17.720Z,975.11
2019-01-27T11:19:18.676Z,975.07
2019-01-27T11:20:17.679Z,975.12
2019-01-27T11:21:17.645Z,975.05
2019-01-27T11:22:17.718Z,975.16
2019-01-27T11:23:17.641Z,975.11
2019-01-27T11:24:17.631Z,975.12
2019-01-27T11:25:17.643Z,975.09
2019-01-27T11:26:17.610Z,975.14
2019-01-27T11:27:17.730Z,975.09
2019-01-27T11:28:17.560Z,975.04
2019-01-27T11:29:17.565Z,975.08
2019-01-27T11:30:17.568Z,975.09
2019-01-27T11:31:17.541Z,975.01
2019-01-27T11:32:17.554Z,975.00
2019-01-27T11:33:17.872Z,974.99
2019-01-27T11:34:17.481Z,974.96
2019-01-27T11:35:17.474Z,974.91
2019-01-27T11:36:17.458Z,974.93
2019-01-27T11:37:17.489Z,974.91
2019-01-27T11:38:17.458Z,974.86
2019-01-27T11:39:17.446Z,974.89
2019-01-27T11:40:17.418Z,974.89
2019-01-27T11:41:18.686Z,974.88
2019-01-27T11:42:17.448Z,974.86
2019-01-27T11:43:17.388Z,974.84
2019-01-27T11:44:18.380Z,974.76
2019-01-27T11:45:17.386Z,974.82
2019-01-27T11:46:17.362Z,974.78
2019-01-27T11:47:17.393Z,974.77
2019-01-27T11:48:17.336Z,974.74
2019-01-27T11:49:17.322Z,974.71
2019-01-27T11:50:17.365Z,974.74
2019-01-27T11:51:17.384Z,974.77
2019-01-27T11:52:18.430Z,974.75
2019-01-27T11:53:17.308Z,974.72
2019-01-27T11:54:17.270Z,974.73
2019-01-27T11:55:18.713Z,974.68
2019-01-27T11:56:17.239Z,974.69
2019-01-27T11:57:17.267Z,974.66
2019-01-27T11:58:17.219Z,974.64
2019-01-27T11:59:17.210Z,974.68
2019-01-27T12:00:17.284Z,974.62
2019-01-27T12:01:17.196Z,974.62
2019-01-27T12:02:17.210Z,974.53
2019-01-27T12:03:17.164Z,974.61
2019-01-27T12:04:17.151Z,974.60
2019-01-27T12:05:17.156Z,974.59
2019-01-27T12:06:17.131Z,974.55
2019-01-27T12:07:17.156Z,974.57
2019-01-27T12:08:17.110Z,974.57
2019-01-27T12:09:17.176Z,974.55
2019-01-27T12:10:17.098Z,974.51
2019-01-27T12:11:17.083Z,974.55
2019-01-27T12:12:17.128Z,974.55
2019-01-27T12:13:17.155Z,974.57
2019-01-27T12:14:17.052Z,974.55
2019-01-27T12:15:17.028Z,974.53
2019-01-27T12:16:17.022Z,974.53
2019-01-27T12:17:17.093Z,974.55
2019-01-27T12:18:17.050Z,974.57
2019-01-27T12:19:17.019Z,974.55
2019-01-27T12:20:17.018Z,974.50
2019-01-27T12:21:16.998Z,974.53
2019-01-27T12:22:17.061Z,974.51
2019-01-27T12:23:16.988Z,974.52
2019-01-27T12:24:17.042Z,974.55
2019-01-27T12:25:16.976Z,974.59
2019-01-27T12:26:16.955Z,974.54
2019-01-27T12:27:16.985Z,974.51
2019-01-27T12:28:16.889Z,974.50